createdAt,value
2022-11-18T00:02:38.595Z,13.70
2022-11-18T00:05:28.140Z,13.60
2022-11-18T00:08:17.440Z,13.60
2022-11-18T00:11:10.362Z,13.60
2022-11-18T00:14:17.383Z,13.60
2022-11-18T00:17:08.088Z,13.50
2022-11-18T00:19:59.053Z,13.50
2022-11-18T00:22:48.581Z,13.50
2022-11-18T00:25:37.803Z,13.50
2022-11-18T00:28:27.367Z,13.50
2022-11-18T00:31:16.315Z,13.50
2022-11-18T00:34:05.642Z,13.50
2022-11-18T00:36:56.357Z,13.50
2022-11-18T00:39:45.470Z,13.50
2022-11-18T00:42:52.792Z,13.40
2022-11-18T00:45:44.162Z,13.40
2022-11-18T00:48:33.292Z,13.40
2022-11-18T04:57:25.123Z,12.40
2022-11-18T05:00:14.572Z,12.40
2022-11-18T05:03:04.164Z,12.40
2022-11-18T05:05:55.026Z,12.40
2022-11-18T05:08:44.411Z,12.40
2022-11-18T05:11:52.182Z,12.40
2022-11-18T05:14:45.194Z,12.50
2022-11-18T05:17:37.131Z,12.50
2022-11-18T05:20:26.477Z,12.40
2022-11-18T05:23:17.146Z,12.50
2022-11-18T05:26:06.965Z,12.60
2022-11-18T05:28:56.363Z,12.60
2022-11-18T05:31:45.654Z,12.80
2022-11-18T05:34:34.602Z,12.60
2022-11-18T05:37:24.206Z,12.50
2022-11-18T05:40:15.638Z,12.60
2022-11-18T05:43:12.650Z,12.50
2022-11-18T05:46:02.264Z,12.60
2022-11-18T05:48:51.000Z,12.60
2022-11-18T05:51:39.874Z,12.70
2022-11-18T05:54:29.394Z,12.70
2022-11-18T05:57:19.518Z,12.80
2022-11-18T06:00:09.816Z,12.70
2022-11-18T06:03:01.085Z,12.60
2022-11-18T06:05:51.206Z,12.60
2022-11-18T06:08:43.413Z,12.60
2022-11-18T06:11:34.108Z,12.50
2022-11-18T06:14:27.308Z,12.50
2022-11-18T06:17:21.707Z,12.60
2022-11-18T06:20:12.124Z,12.60
2022-11-18T06:23:01.872Z,12.60
2022-11-18T06:25:50.972Z,12.70
2022-11-18T06:28:41.801Z,12.70
2022-11-18T06:31:32.118Z,12.80
2022-11-18T06:34:21.613Z,12.70
2022-11-18T06:37:17.133Z,12.70
2022-11-18T06:40:07.247Z,12.70
2022-11-18T06:43:13.674Z,12.70
2022-11-18T06:46:21.391Z,12.70
2022-11-18T06:49:12.648Z,12.80
2022-11-18T06:52:02.276Z,12.80
2022-11-18T06:54:51.277Z,12.80
2022-11-18T06:57:40.068Z,12.80
2022-11-18T07:00:29.177Z,12.80
2022-11-18T07:03:18.818Z,12.80
2022-11-18T07:06:10.836Z,12.70
2022-11-18T07:09:01.836Z,12.70
2022-11-18T07:11:51.026Z,12.60
2022-11-18T07:14:40.004Z,12.60
2022-11-18T07:17:32.041Z,12.70
2022-11-18T07:20:20.769Z,12.70
2022-11-18T07:23:11.796Z,12.80
2022-11-18T07:26:01.005Z,12.80
2022-11-18T07:28:50.261Z,12.60
2022-11-18T07:31:40.081Z,12.60
2022-11-18T07:34:29.273Z,12.70
2022-11-18T07:37:18.551Z,12.80
2022-11-18T07:40:11.696Z,12.80
2022-11-18T07:43:02.066Z,12.90
2022-11-18T07:45:51.748Z,13.00
2022-11-18T07:48:41.313Z,13.20
2022-11-18T07:51:32.320Z,13.20
2022-11-18T07:54:21.926Z,13.30
2022-11-18T07:57:12.066Z,13.30
2022-11-18T08:00:00.711Z,13.30
2022-11-18T08:02:52.556Z,13.30
2022-11-18T08:05:42.131Z,13.40
2022-11-18T08:08:31.490Z,13.30
2022-11-18T08:11:22.858Z,13.30
2022-11-18T08:14:13.386Z,13.30
2022-11-18T08:17:02.415Z,13.20
2022-11-18T08:19:51.626Z,13.20
2022-11-18T08:22:41.168Z,13.30
2022-11-18T08:25:30.528Z,13.40
2022-11-18T08:28:20.407Z,13.40
2022-11-18T08:31:15.697Z,13.50
2022-11-18T08:34:07.953Z,13.70
2022-11-18T08:36:57.662Z,13.70
2022-11-18T08:39:47.015Z,13.70
2022-11-18T08:42:38.185Z,13.80
2022-11-18T08:45:27.680Z,13.70
2022-11-18T08:48:18.251Z,13.70
2022-11-18T08:51:07.266Z,13.80
2022-11-18T08:53:56.310Z,13.90
2022-11-18T08:56:45.647Z,13.90
2022-11-18T08:59:34.833Z,13.80
2022-11-18T09:02:24.974Z,13.90
2022-11-18T09:05:15.462Z,14.10
2022-11-18T09:08:04.613Z,14.20
2022-11-18T09:10:53.176Z,14.40
2022-11-18T09:14:09.991Z,14.60
2022-11-18T09:16:51.720Z,14.50
2022-11-18T09:19:47.344Z,14.40
2022-11-18T09:22:40.563Z,14.40
2022-11-18T09:25:29.151Z,14.40
2022-11-18T09:28:18.296Z,14.40
2022-11-18T09:31:09.765Z,14.30
2022-11-18T09:34:02.095Z,14.20
2022-11-18T09:36:55.970Z,14.20
2022-11-18T09:39:46.989Z,14.30
2022-11-18T09:42:49.337Z,14.30
2022-11-18T09:45:43.596Z,14.30
2022-11-18T09:48:52.304Z,14.30
2022-11-18T09:51:43.885Z,14.30
2022-11-18T09:54:36.079Z,14.20
2022-11-18T09:57:31.442Z,14.20
2022-11-18T10:00:23.432Z,14.30
2022-11-18T10:03:22.987Z,14.30
2022-11-18T10:06:24.166Z,14.30
2022-11-18T10:09:25.416Z,14.40
2022-11-18T10:12:30.524Z,14.40
2022-11-18T10:15:26.025Z,14.40
2022-11-18T10:18:52.789Z,14.30
2022-11-18T10:21:46.164Z,14.40
2022-11-18T10:24:40.442Z,14.60
2022-11-18T10:27:39.763Z,14.70
2022-11-18T10:30:29.607Z,14.70
2022-11-18T10:33:28.234Z,14.80
2022-11-18T10:36:34.229Z,14.90
2022-11-18T10:39:24.020Z,14.80
2022-11-18T10:42:22.333Z,14.90
2022-11-18T10:45:25.702Z,15.00
2022-11-18T10:48:20.580Z,15.10
2022-11-18T10:51:23.947Z,15.10
2022-11-18T10:54:17.658Z,15.30
2022-11-18T10:57:11.156Z,15.40
2022-11-18T11:00:00.746Z,15.50
2022-11-18T11:02:51.563Z,15.50
2022-11-18T11:05:41.062Z,15.50
2022-11-18T11:08:36.807Z,15.50
2022-11-18T11:11:28.887Z,15.40
2022-11-18T11:14:23.652Z,15.30
2022-11-18T11:17:16.492Z,15.30
2022-11-18T11:20:17.205Z,15.30
2022-11-18T11:23:11.266Z,15.40
2022-11-18T11:29:23.585Z,15.60
2022-11-18T11:32:21.418Z,15.80
2022-11-18T11:35:20.166Z,16.00
2022-11-18T11:38:18.250Z,16.30
2022-11-18T11:41:18.100Z,16.60
2022-11-18T11:44:31.786Z,16.50
2022-11-18T11:47:56.376Z,16.70
2022-11-18T11:51:02.009Z,16.70
2022-11-18T11:54:20.861Z,16.80
2022-11-18T11:57:23.787Z,17.10
2022-11-18T12:00:16.417Z,17.40
2022-11-18T12:03:20.644Z,17.10
2022-11-18T12:06:12.572Z,17.30
2022-11-18T12:09:07.640Z,17.60
2022-11-18T12:12:02.760Z,17.80
2022-11-18T18:25:11.700Z,13.90
2022-11-18T18:28:01.360Z,13.70
2022-11-18T18:30:59.243Z,13.60
2022-11-18T18:33:48.492Z,13.60
2022-11-18T18:36:37.412Z,13.60
2022-11-18T18:39:26.730Z,13.70
2022-11-18T18:42:19.437Z,13.70
2022-11-18T18:45:27.791Z,13.90
2022-11-18T18:48:18.685Z,13.70
2022-11-18T18:51:09.249Z,13.80
2022-11-18T18:53:58.224Z,13.80
2022-11-18T18:56:47.776Z,13.80
2022-11-18T18:59:37.175Z,13.80
2022-11-18T19:02:26.326Z,13.70
2022-11-18T19:05:17.002Z,13.70
2022-11-18T19:08:06.291Z,13.60
2022-11-18T19:10:55.451Z,13.50
2022-11-18T19:13:43.079Z,13.50
2022-11-18T19:16:31.935Z,13.60
2022-11-18T19:19:43.209Z,13.50
2022-11-18T19:22:35.177Z,13.50
2022-11-18T19:25:24.683Z,13.60
2022-11-18T19:28:13.911Z,13.50
2022-11-18T19:31:02.685Z,13.30
2022-11-18T19:33:52.060Z,13.10
2022-11-18T19:36:41.223Z,13.00
2022-11-18T19:39:31.730Z,13.00
2022-11-18T19:42:20.594Z,13.00
2022-11-18T19:45:10.261Z,12.80
2022-11-18T19:48:02.114Z,12.70
2022-11-18T19:50:51.586Z,12.90
2022-11-18T19:53:41.964Z,13.00
2022-11-18T19:56:32.639Z,13.00
2022-11-18T19:59:22.211Z,13.10
2022-11-18T20:02:12.837Z,13.10
2022-11-18T20:05:18.546Z,13.00
2022-11-18T20:08:08.101Z,12.80
2022-11-18T20:11:05.308Z,12.60
2022-11-18T20:13:58.543Z,12.50
2022-11-18T20:16:47.963Z,12.50
2022-11-18T20:19:37.105Z,12.40
2022-11-18T20:22:26.228Z,12.50
2022-11-18T20:25:15.855Z,12.60
2022-11-18T20:28:05.447Z,12.10
2022-11-18T20:30:57.106Z,11.80
2022-11-18T20:33:49.950Z,11.80
2022-11-18T20:36:38.954Z,11.90
2022-11-18T20:39:28.979Z,11.80
2022-11-18T20:42:35.456Z,11.40
2022-11-18T20:45:24.664Z,11.60
2022-11-18T20:48:15.443Z,11.70
2022-11-18T20:51:05.414Z,11.90
2022-11-18T20:53:56.684Z,11.90
2022-11-18T20:56:45.632Z,12.00
2022-11-18T20:59:34.921Z,12.20
2022-11-18T21:02:24.082Z,12.10
2022-11-18T21:05:14.603Z,12.20
2022-11-18T21:08:04.038Z,12.30
2022-11-18T21:10:53.429Z,12.40
2022-11-18T21:14:00.744Z,12.40
2022-11-18T21:16:49.563Z,12.40
2022-11-18T21:19:38.529Z,12.40
2022-11-18T21:22:28.321Z,12.40
2022-11-18T21:25:17.915Z,12.40
2022-11-18T21:28:07.249Z,12.50
2022-11-18T21:30:57.220Z,12.30
2022-11-18T21:33:46.444Z,11.90
2022-11-18T21:36:41.339Z,11.90
2022-11-18T21:39:35.209Z,11.60
2022-11-18T21:42:24.335Z,11.60
2022-11-18T21:45:13.777Z,11.30
2022-11-18T21:48:03.156Z,11.20
2022-11-18T21:50:52.443Z,11.30
2022-11-18T21:53:42.272Z,11.40
2022-11-18T21:56:33.297Z,11.50
2022-11-18T21:59:23.991Z,11.40
2022-11-18T22:02:15.257Z,11.50
2022-11-18T22:05:07.335Z,11.50
2022-11-18T22:07:56.934Z,11.60
2022-11-18T22:10:47.609Z,11.70
2022-11-18T22:13:38.689Z,11.90
2022-11-18T22:16:28.416Z,12.00
2022-11-18T22:19:17.512Z,12.00
2022-11-18T22:22:06.789Z,11.90
2022-11-18T22:24:55.995Z,11.90
2022-11-18T22:27:45.317Z,11.60
2022-11-18T22:30:36.582Z,11.70
2022-11-18T22:33:25.989Z,11.80
2022-11-18T22:36:18.019Z,11.70
2022-11-18T22:39:06.966Z,11.70
2022-11-18T22:42:13.227Z,11.60
2022-11-18T22:45:02.446Z,11.60
2022-11-18T22:47:53.168Z,11.50
2022-11-18T22:50:43.209Z,11.50
2022-11-18T22:53:33.754Z,11.40
2022-11-18T22:56:23.595Z,11.50
2022-11-18T22:59:13.202Z,11.50
2022-11-18T23:02:03.066Z,11.10
2022-11-18T23:04:53.568Z,11.80
2022-11-18T23:07:42.671Z,11.80
2022-11-18T23:10:32.738Z,11.90
2022-11-18T23:13:38.977Z,12.00
2022-11-18T23:16:32.813Z,12.10
2022-11-18T23:19:21.922Z,12.20
2022-11-18T23:22:13.384Z,12.20
2022-11-18T23:25:02.196Z,12.30
2022-11-18T23:27:54.163Z,12.30
2022-11-18T23:30:43.480Z,12.30
2022-11-18T23:33:32.952Z,12.30
2022-11-18T23:36:22.874Z,12.30
2022-11-18T23:39:14.857Z,12.30
2022-11-18T23:42:04.041Z,12.30
2022-11-18T23:44:52.908Z,12.30
2022-11-18T23:47:41.729Z,12.30
2022-11-18T23:50:35.277Z,12.30
2022-11-18T23:53:29.419Z,12.30
2022-11-18T23:56:21.663Z,12.30
2022-11-18T23:59:11.504Z,12.30
